Airport View

Enter AWOS ICAO identifier for current METAR.

ex. KFNL

PABT 261053Z 36003KT 10SM FEW120 11/02 A3013 RMK AO2 SLP211 T01060017

26 Jun 2019 11:49

Frequency: 135.45

Phone: 907-692-5900

Other Area AWOS: PAKP - PAIM

TAF PABT 260539Z 2606/2706 35004KT P6SM FEW200